Time;durP1;ratioP1;P1;durP2;ratioP2;P2;SDS_P1;SDS_P2;PMS_P1;PMS_P2;Temp;Humidity;BMP_temperature;BMP_pressure;BME280_temperature;BME280_humidity;BME280_pressure;Samples;Min_cycle;Max_cycle;Signal;HPM_P1;HPM_P2
2023/05/18 00:03:24;;;;;;;;;;;13.60;36.60;;;12.43;38.16;102280.44;12256316;19;19914;-88
2023/05/18 00:07:28;;;;;;;;;;;13.70;36.70;;;12.29;38.06;102257.38;12256876;19;19938;-88
2023/05/18 00:11:31;;;;;;;;;;;13.50;36.70;;;12.37;38.14;102273.66;12258437;19;20368;-88
2023/05/18 00:15:33;;;;;;;;;;;13.50;36.70;;;12.20;38.08;102253.31;12252307;19;19915;-88
2023/05/18 00:19:35;;;;;;;;;;;13.50;36.70;;;12.28;38.10;102272.22;12256517;19;19915;-88
2023/05/18 00:23:38;;;;;;;;;;;13.40;36.70;;;12.35;38.08;102289.41;12257335;19;20259;-88
2023/05/18 00:27:39;;;;;;;;;;;13.40;36.70;;;12.32;38.15;102291.31;12260093;19;19919;-88
2023/05/18 00:31:43;;;;;;;;;;;13.40;36.80;;;12.27;38.32;102294.09;12259647;19;19922;-88
2023/05/18 00:35:44;;;;;;;;;;;13.30;36.80;;;12.18;38.41;102281.34;12252363;19;19935;-88
2023/05/18 00:39:46;;;;;;;;;;;13.30;36.90;;;12.23;38.30;102300.34;12255112;19;19919;-88
2023/05/18 00:43:47;;;;;;;;;;;13.30;36.80;;;12.18;38.23;102303.16;12255909;19;20611;-88
2023/05/18 00:47:49;;;;;;;;;;;13.20;36.90;;;12.11;38.38;102292.94;12250343;19;20348;-88
2023/05/18 00:51:52;;;;;;;;;;;13.20;36.90;;;12.03;38.36;102292.38;12253930;19;19915;-88
2023/05/18 00:55:53;;;;;;;;;;;13.10;36.90;;;11.95;38.41;102298.72;12250983;19;19936;-88
2023/05/18 00:59:56;;;;;;;;;;;13.10;37.00;;;11.94;38.54;102304.03;12255227;19;19915;-88
2023/05/18 01:04:01;;;;;;;;;;;13.10;37.00;;;11.99;38.57;102328.28;12254194;19;19936;-88
2023/05/18 01:08:02;;;;;;;;;;;13.10;37.10;;;11.98;38.46;102326.56;12255874;19;19966;-88
2023/05/18 01:12:16;;;;;;;;;;;13.10;37.10;;;12.00;38.54;102334.38;12252431;19;20453;-88
2023/05/18 01:16:25;;;;;;;;;;;13.10;37.10;;;11.95;38.58;102332.75;12254736;19;19919;-88
2023/05/18 01:20:56;;;;;;;;;;;13.00;37.10;;;11.85;38.53;102320.88;12256828;19;19915;-88
2023/05/18 01:25:03;;;;;;;;;;;13.00;37.10;;;11.88;38.54;102346.13;12255426;19;19926;-88
2023/05/18 01:29:10;;;;;;;;;;;13.00;37.20;;;11.78;38.62;102340.31;12253944;19;19922;-88
2023/05/18 01:33:12;;;;;;;;;;;12.90;37.10;;;11.69;38.65;102335.38;12251430;19;19947;-88
2023/05/18 01:37:13;;;;;;;;;;;12.90;37.10;;;11.62;38.71;102339.13;12249131;19;20289;-88
2023/05/18 01:41:26;;;;;;;;;;;12.80;37.20;;;11.47;38.78;102319.56;12254949;19;19926;-88
2023/05/18 01:45:29;;;;;;;;;;;12.80;37.20;;;11.60;38.75;102357.50;12247003;19;20282;-88
2023/05/18 01:50:00;;;;;;;;;;;12.70;37.30;;;11.56;38.65;102352.41;12255383;19;19925;-88
2023/05/18 01:54:07;;;;;;;;;;;12.70;37.20;;;11.38;38.86;102328.56;12252906;19;19929;-88
2023/05/18 01:58:09;;;;;;;;;;;12.60;37.20;;;11.49;38.73;102362.22;12253535;19;20595;-89
2023/05/18 02:02:11;;;;;;;;;;;12.60;37.30;;;11.39;38.89;102350.34;12252761;19;19914;-88
2023/05/18 02:06:13;;;;;;;;;;;12.60;37.40;;;11.16;38.82;102319.72;12250476;19;19926;-88
2023/05/18 02:10:14;;;;;;;;;;;12.50;37.30;;;11.36;38.74;102351.31;12253294;19;19914;-88
2023/05/18 02:14:16;;;;;;;;;;;12.50;37.40;;;11.25;39.10;102350.78;12251219;19;19918;-88
2023/05/18 02:18:18;;;;;;;;;;;12.50;37.50;;;11.24;38.84;102351.72;12252783;19;20419;-88
2023/05/18 02:22:19;;;;;;;;;;;12.40;37.40;;;10.91;39.08;102306.53;12251882;19;19912;-88
2023/05/18 02:26:21;;;;;;;;;;;12.50;37.50;;;11.13;39.06;102340.75;12250676;19;19927;-88
2023/05/18 02:30:28;;;;;;;;;;;12.40;37.50;;;11.15;39.13;102344.13;12253028;19;19937;-88
2023/05/18 02:34:34;;;;;;;;;;;12.40;37.50;;;11.10;39.20;102332.97;12248027;19;20240;-88
2023/05/18 02:38:37;;;;;;;;;;;12.40;37.60;;;11.10;39.01;102336.47;12253198;19;20222;-88
2023/05/18 02:42:39;;;;;;;;;;;12.60;37.70;;;11.11;39.19;102342.53;12251878;19;20360;-89
2023/05/18 02:46:41;;;;;;;;;;;12.40;37.60;;;10.90;39.06;102310.06;12246455;19;19925;-88
2023/05/18 02:50:44;;;;;;;;;;;12.40;37.70;;;11.03;39.24;102351.47;12251117;19;19923;-88
2023/05/18 02:54:46;;;;;;;;;;;12.30;37.60;;;10.91;39.09;102336.19;12248870;19;19979;-88
2023/05/18 02:58:56;;;;;;;;;;;12.30;37.60;;;10.88;39.19;102349.31;12257751;19;20385;-88
2023/05/18 03:03:14;;;;;;;;;;;12.20;37.50;;;10.90;39.25;102355.34;12263189;19;20393;-88
2023/05/18 03:07:20;;;;;;;;;;;12.20;37.60;;;10.63;39.32;102305.63;12262936;19;19932;-88
2023/05/18 03:11:23;;;;;;;;;;;12.10;37.70;;;10.87;39.24;102355.44;12264233;19;19923;-88
2023/05/18 03:15:25;;;;;;;;;;;12.10;37.70;;;10.83;39.40;102352.09;12258812;19;19915;-88
2023/05/18 03:19:27;;;;;;;;;;;12.10;37.70;;;10.84;39.26;102361.63;12263801;19;19915;-88
2023/05/18 03:23:29;;;;;;;;;;;12.10;37.70;;;10.70;39.34;102347.28;12262427;19;19915;-88
2023/05/18 03:27:31;;;;;;;;;;;12.10;37.70;;;10.77;39.27;102369.69;12262008;19;19964;-88
2023/05/18 03:31:33;;;;;;;;;;;12.00;37.70;;;10.62;39.42;102353.56;12262859;19;20328;-88
2023/05/18 03:35:39;;;;;;;;;;;11.90;37.60;;;10.56;39.50;102358.97;12258270;19;19947;-88
2023/05/18 03:39:42;;;;;;;;;;;11.90;37.70;;;10.59;39.48;102377.19;12262781;19;19955;-88
2023/05/18 03:43:44;;;;;;;;;;;11.80;37.70;;;10.44;39.31;102367.16;12261107;19;19933;-88
2023/05/18 03:47:47;;;;;;;;;;;11.80;37.70;;;10.47;39.39;102387.09;12260936;19;19914;-88
2023/05/18 03:51:48;;;;;;;;;;;11.70;37.80;;;10.29;39.56;102373.69;12263299;19;19919;-88
2023/05/18 03:55:51;;;;;;;;;;;11.60;37.70;;;10.29;39.53;102384.13;12258352;19;19994;-88
2023/05/18 03:59:53;;;;;;;;;;;11.60;37.70;;;10.27;39.59;102390.25;12263932;19;19914;-88
2023/05/18 04:03:55;;;;;;;;;;;11.50;37.70;;;10.01;39.62;102357.00;12260413;19;19926;-88
2023/05/18 04:07:56;;;;;;;;;;;11.40;37.80;;;10.08;39.63;102384.66;12261668;19;20014;-88
2023/05/18 04:11:58;;;;;;;;;;;11.40;37.80;;;9.90;39.70;102367.72;12258543;19;20269;-88
2023/05/18 04:15:59;;;;;;;;;;;11.40;37.90;;;10.12;39.65;102410.63;12254326;19;20359;-88
2023/05/18 04:20:10;;;;;;;;;;;11.30;37.90;;;10.05;39.74;102397.78;12257339;19;19914;-88
2023/05/18 04:24:13;;;;;;;;;;;11.30;38.10;;;10.17;39.77;102419.19;12256747;19;19955;-88
2023/05/18 04:28:15;;;;;;;;;;;11.40;38.20;;;10.08;39.82;102409.00;12259219;19;19922;-88
2023/05/18 04:32:17;;;;;;;;;;;11.40;38.20;;;10.17;39.80;102421.78;12252795;19;19925;-88
2023/05/18 04:36:19;;;;;;;;;;;11.40;38.20;;;10.10;39.95;102409.81;12259598;19;19911;-88
2023/05/18 04:40:21;;;;;;;;;;;11.40;38.30;;;10.16;39.85;102414.88;12259031;19;19930;-88
2023/05/18 04:44:28;;;;;;;;;;;11.40;38.30;;;10.23;40.00;102422.53;12258402;19;19979;-88
2023/05/18 04:48:32;;;;;;;;;;;11.40;38.30;;;10.22;39.98;102421.69;12255771;19;20344;-89
2023/05/18 04:52:36;;;;;;;;;;;11.50;38.50;;;10.19;40.03;102414.78;12255420;19;19940;-88
2023/05/18 04:56:38;;;;;;;;;;;11.50;38.60;;;10.29;39.97;102419.78;12253986;19;20225;-88
2023/05/18 05:00:41;;;;;;;;;;;11.60;38.70;;;10.37;40.16;102426.53;12257795;19;19935;-88
2023/05/18 05:04:43;;;;;;;;;;;11.60;38.90;;;10.25;40.20;102403.31;12255884;19;19935;-88
2023/05/18 05:08:45;;;;;;;;;;;11.90;39.00;;;10.30;40.17;102395.41;12258059;19;19925;-88
2023/05/18 05:12:48;;;;;;;;;;;11.80;39.00;;;10.62;40.10;102442.41;12258653;19;19927;-89
2023/05/18 05:16:50;;;;;;;;;;;11.90;39.00;;;10.56;40.26;102412.97;12251664;19;19910;-88
2023/05/18 05:20:52;;;;;;;;;;;12.00;39.10;;;10.77;40.37;102442.84;12257876;19;19927;-88
2023/05/18 05:24:54;;;;;;;;;;;12.00;39.00;;;10.77;40.39;102420.19;12255324;19;19918;-88
2023/05/18 05:28:56;;;;;;;;;;;12.10;39.10;;;10.72;40.30;102402.94;12258464;19;19915;-88
2023/05/18 05:32:58;;;;;;;;;;;12.20;39.10;;;10.97;40.36;102435.31;12257012;19;19919;-88
2023/05/18 05:37:01;;;;;;;;;;;12.40;39.10;;;11.11;40.54;102441.88;12254268;19;20344;-88
2023/05/18 05:41:04;;;;;;;;;;;12.50;39.30;;;11.26;40.54;102449.25;12256579;19;20343;-88
2023/05/18 05:45:07;;;;;;;;;;;12.60;39.30;;;11.38;40.71;102450.66;12254394;19;19926;-88
2023/05/18 05:49:16;;;;;;;;;;;12.70;39.50;;;11.51;40.76;102447.59;12254566;19;19918;-88
2023/05/18 05:53:18;;;;;;;;;;;12.90;39.50;;;11.81;40.89;102468.47;12253374;19;19929;-88
2023/05/18 05:57:22;;;;;;;;;;;13.10;39.60;;;12.01;40.99;102462.59;12251579;19;19922;-88
2023/05/18 06:01:23;;;;;;;;;;;13.30;39.60;;;12.18;40.84;102455.06;12251479;19;19914;-88
2023/05/18 06:05:25;;;;;;;;;;;13.60;39.70;;;12.25;40.94;102439.13;12247384;19;20334;-88
2023/05/18 06:09:28;;;;;;;;;;;13.80;39.60;;;12.36;41.02;102422.09;12253306;19;19940;-89
2023/05/18 06:13:31;;;;;;;;;;;14.00;39.60;;;12.78;40.99;102458.19;12246968;19;19931;-88
2023/05/18 06:17:32;;;;;;;;;;;14.20;39.60;;;12.80;40.87;102435.38;12250809;19;19922;-88
2023/05/18 06:21:34;;;;;;;;;;;14.40;38.80;;;12.68;40.90;102408.75;12248340;19;19978;-88
2023/05/18 06:25:37;;;;;;;;;;;14.50;39.30;;;13.01;40.77;102448.59;12247230;19;19930;-89
2023/05/18 06:30:02;;;;;;;;;;;14.60;38.60;;;13.04;40.99;102445.84;12247015;19;19911;-88
2023/05/18 06:34:29;;;;;;;;;;;14.70;39.20;;;13.11;40.87;102449.09;12244104;19;20601;-88
2023/05/18 06:38:31;;;;;;;;;;;14.70;38.90;;;13.16;40.94;102440.16;12249183;19;19914;-88
2023/05/18 06:42:33;;;;;;;;;;;14.80;38.80;;;13.33;40.98;102452.63;12248853;19;20712;-88
2023/05/18 06:46:54;;;;;;;;;;;14.80;38.60;;;13.41;40.95;102457.59;12242068;19;20337;-87
2023/05/18 06:51:02;;;;;;;;;;;15.00;38.80;;;13.50;40.95;102465.09;12249340;19;20239;-86
2023/05/18 06:55:04;;;;;;;;;;;15.00;38.80;;;13.36;40.89;102420.19;12247382;19;19915;-88
2023/05/18 06:59:07;;;;;;;;;;;15.10;38.80;;;13.58;40.98;102447.25;12252622;19;20286;-88
2023/05/18 07:03:08;;;;;;;;;;;15.20;38.90;;;13.47;40.83;102412.72;12251216;19;20368;-87
2023/05/18 07:07:10;;;;;;;;;;;15.20;38.90;;;13.75;40.85;102443.13;12250429;19;19922;-88
2023/05/18 07:11:12;;;;;;;;;;;15.30;39.00;;;13.82;40.88;102445.41;12255096;19;20287;-88
2023/05/18 07:15:14;;;;;;;;;;;15.40;38.80;;;14.04;40.91;102458.53;12248445;19;19922;-87
2023/05/18 07:19:16;;;;;;;;;;;15.50;38.90;;;14.15;41.01;102456.31;12251518;19;20349;-88
2023/05/18 07:23:18;;;;;;;;;;;15.60;39.00;;;14.25;40.96;102453.28;12249821;19;19919;-88
2023/05/18 07:27:20;;;;;;;;;;;15.70;38.90;;;14.45;40.97;102461.16;12248921;19;20318;-89
2023/05/18 07:31:21;;;;;;;;;;;15.80;38.90;;;14.59;41.07;102455.31;12248594;19;19962;-89
2023/05/18 07:35:25;;;;;;;;;;;16.00;38.90;;;14.64;41.02;102440.19;12233955;19;19922;-89
2023/05/18 07:39:28;;;;;;;;;;;16.10;38.80;;;14.87;41.12;102451.44;12246765;19;19930;-89
2023/05/18 07:43:29;;;;;;;;;;;16.30;38.80;;;15.09;41.19;102457.41;12243612;19;19974;-89
2023/05/18 07:47:31;;;;;;;;;;;16.50;38.90;;;15.16;41.04;102443.06;12258716;19;19979;-88
2023/05/18 07:51:33;;;;;;;;;;;16.70;38.80;;;15.27;41.09;102443.41;12263732;19;19919;-88
2023/05/18 07:55:34;;;;;;;;;;;16.80;38.60;;;15.38;40.87;102440.25;12257943;19;19919;-88
2023/05/18 07:59:36;;;;;;;;;;;16.90;38.50;;;15.49;40.79;102452.91;12249654;19;19930;-88
2023/05/18 08:03:38;;;;;;;;;;;17.00;38.40;;;15.58;40.87;102470.91;12257867;19;19915;-88
2023/05/18 08:07:39;;;;;;;;;;;17.10;38.20;;;15.68;41.00;102480.09;12255872;19;19915;-87
2023/05/18 08:11:41;;;;;;;;;;;17.20;38.20;;;15.64;40.75;102469.75;12256380;19;19907;-87
2023/05/18 08:15:43;;;;;;;;;;;17.20;38.10;;;15.58;40.65;102457.75;12248662;19;19921;-87
2023/05/18 08:19:46;;;;;;;;;;;17.20;37.90;;;15.49;40.51;102451.13;12253951;19;19949;-87
2023/05/18 08:23:47;;;;;;;;;;;17.10;37.60;;;15.51;40.75;102450.22;12256471;19;19942;-87
2023/05/18 08:27:49;;;;;;;;;;;17.20;37.70;;;15.48;40.70;102438.06;12256610;19;20285;-87
2023/05/18 08:31:50;;;;;;;;;;;17.10;37.90;;;15.65;40.54;102468.81;12255939;19;19919;-87
2023/05/18 08:35:52;;;;;;;;;;;17.10;37.60;;;15.57;40.50;102457.81;12252409;19;19940;-87
2023/05/18 08:39:53;;;;;;;;;;;17.10;37.60;;;15.37;40.57;102424.56;12257064;19;19911;-87
2023/05/18 08:44:08;;;;;;;;;;;17.10;37.50;;;15.59;40.63;102450.69;12254423;19;19926;-87
2023/05/18 08:48:11;;;;;;;;;;;17.10;37.60;;;15.71;40.62;102455.38;12252400;19;19910;-88
2023/05/18 08:52:17;;;;;;;;;;;17.20;37.70;;;15.54;40.62;102415.84;12251322;19;19922;-87
2023/05/18 08:56:21;;;;;;;;;;;17.30;37.70;;;15.84;40.38;102469.66;12250353;19;19915;-88
2023/05/18 09:00:23;;;;;;;;;;;17.20;37.60;;;15.86;40.32;102467.81;12251020;19;19923;-87
2023/05/18 09:04:26;;;;;;;;;;;17.30;37.60;;;15.79;40.58;102453.22;12251005;19;19915;-88
2023/05/18 09:08:28;;;;;;;;;;;17.30;37.60;;;15.96;40.52;102470.84;12249624;19;20277;-90
2023/05/18 09:12:30;;;;;;;;;;;17.30;37.50;;;16.00;40.47;102455.72;12249883;19;19926;-90
2023/05/18 09:16:32;;;;;;;;;;;17.40;37.60;;;16.07;40.51;102455.34;12246572;19;20395;-90
2023/05/18 09:20:34;;;;;;;;;;;17.40;37.50;;;16.13;40.48;102441.84;12251766;19;20329;-90
2023/05/18 09:24:36;;;;;;;;;;;17.50;37.40;;;16.30;40.36;102454.16;12247896;19;19948;-90
2023/05/18 09:28:44;;;;;;;;;;;17.70;37.60;;;16.42;40.32;102451.81;12242575;19;20345;-90
2023/05/18 09:32:46;;;;;;;;;;;17.70;37.30;;;16.34;40.23;102444.31;12247408;19;19970;-91
2023/05/18 09:36:55;;;;;;;;;;;17.80;37.20;;;16.28;40.29;102434.06;12242436;19;19970;-90
2023/05/18 09:40:57;;;;;;;;;;;17.80;37.30;;;16.24;40.14;102425.47;12249160;19;20007;-90
2023/05/18 09:44:58;;;;;;;;;;;17.80;37.20;;;16.52;40.39;102443.34;12245077;19;20282;-89
2023/05/18 09:48:59;;;;;;;;;;;17.90;37.20;;;16.56;40.14;102420.31;12246240;19;19918;-90
2023/05/18 09:53:04;;;;;;;;;;;17.90;37.40;;;16.84;40.10;102442.59;12247814;19;19933;-90
2023/05/18 09:57:06;;;;;;;;;;;18.10;37.10;;;16.86;40.04;102431.03;12241981;19;19922;-90
2023/05/18 10:01:08;;;;;;;;;;;18.20;37.20;;;16.98;40.12;102435.59;12246986;19;20004;-90
2023/05/18 10:05:26;;;;;;;;;;;18.30;36.80;;;16.99;40.00;102437.34;12246900;19;19927;-87
2023/05/18 10:09:27;;;;;;;;;;;18.40;36.90;;;17.08;39.87;102438.59;12244627;19;19919;-87
2023/05/18 10:13:30;;;;;;;;;;;18.50;37.10;;;17.02;39.86;102428.41;12248494;19;19929;-87
2023/05/18 10:17:32;;;;;;;;;;;18.50;36.70;;;17.11;39.63;102427.88;12248321;19;19929;-87
2023/05/18 10:21:35;;;;;;;;;;;18.50;36.60;;;17.19;39.64;102436.22;12237855;19;19931;-87
2023/05/18 10:25:38;;;;;;;;;;;18.50;36.60;;;17.28;39.67;102426.06;12241530;19;19919;-87
2023/05/18 10:29:40;;;;;;;;;;;18.60;36.20;;;17.32;39.74;102414.41;12245679;19;20268;-87
2023/05/18 10:33:42;;;;;;;;;;;18.60;36.60;;;17.22;39.53;102385.03;12241311;19;19914;-87
2023/05/18 10:37:47;;;;;;;;;;;18.70;36.40;;;17.36;39.67;102403.59;12248456;19;19936;-88
2023/05/18 10:41:50;;;;;;;;;;;18.80;36.40;;;17.44;39.66;102400.50;12244873;19;20413;-87
2023/05/18 10:45:57;;;;;;;;;;;18.80;36.70;;;17.48;39.82;102391.47;12243987;19;19918;-88
2023/05/18 10:50:00;;;;;;;;;;;18.90;36.80;;;17.38;39.60;102372.66;12248499;19;19919;-88
2023/05/18 10:54:12;;;;;;;;;;;18.90;36.50;;;17.61;39.54;102410.13;12243241;19;19919;-88
2023/05/18 10:58:16;;;;;;;;;;;19.00;36.00;;;17.59;39.61;102412.00;12247531;19;19984;-87
2023/05/18 11:02:18;;;;;;;;;;;19.00;36.50;;;17.67;39.62;102410.59;12245806;19;19918;-87
2023/05/18 11:06:23;;;;;;;;;;;19.00;36.50;;;17.66;39.75;102387.78;12244995;19;19926;-88
2023/05/18 11:10:31;;;;;;;;;;;19.10;36.70;;;17.87;39.26;102417.38;12245450;19;19936;-87
2023/05/18 11:14:34;;;;;;;;;;;19.10;36.20;;;17.81;39.14;102416.91;12241523;19;19918;-87
2023/05/18 11:18:50;;;;;;;;;;;19.20;36.30;;;17.83;39.21;102417.66;12249130;19;19919;-87
2023/05/18 11:22:58;;;;;;;;;;;19.20;36.10;;;17.86;39.29;102412.19;12255880;19;19942;-87
2023/05/18 11:27:11;;;;;;;;;;;19.10;36.40;;;17.79;39.19;102385.25;12254013;19;19925;-87
2023/05/18 11:31:16;;;;;;;;;;;19.20;36.40;;;17.95;39.52;102374.63;12256792;19;19914;-88
2023/05/18 11:35:22;;;;;;;;;;;19.20;36.30;;;18.02;39.20;102368.03;12253686;19;19928;-87
2023/05/18 11:39:23;;;;;;;;;;;19.30;36.40;;;18.03;39.09;102372.38;12257166;19;19966;-87
2023/05/18 11:43:25;;;;;;;;;;;19.40;36.30;;;18.02;39.09;102375.13;12257122;19;19910;-88
2023/05/18 11:47:32;;;;;;;;;;;19.40;35.40;;;18.07;39.11;102375.72;12256191;19;19914;-87
2023/05/18 11:51:53;;;;;;;;;;;19.40;35.40;;;18.20;38.89;102379.31;12255226;19;20353;-88
2023/05/18 11:55:55;;;;;;;;;;;19.40;34.90;;;18.24;39.15;102377.31;12252434;19;20253;-88
2023/05/18 11:59:58;;;;;;;;;;;19.50;35.40;;;18.27;38.72;102382.41;12257348;19;19923;-87
2023/05/18 12:03:59;;;;;;;;;;;19.50;36.00;;;18.25;38.92;102371.06;12253481;19;19918;-87
2023/05/18 12:08:02;;;;;;;;;;;19.60;35.90;;;18.22;38.84;102350.97;12255226;19;19911;-88
2023/05/18 12:12:04;;;;;;;;;;;19.60;36.00;;;18.44;38.84;102373.44;12253140;19;19935;-87
2023/05/18 12:16:06;;;;;;;;;;;19.60;36.10;;;18.58;39.05;102373.44;12252013;19;19914;-90
2023/05/18 12:20:11;;;;;;;;;;;19.70;36.10;;;18.68;38.98;102379.00;12251904;19;19926;-87
2023/05/18 12:24:14;;;;;;;;;;;19.80;36.10;;;18.68;38.78;102357.81;12254787;19;19919;-86
2023/05/18 12:28:16;;;;;;;;;;;19.90;35.90;;;18.61;38.86;102338.84;12255595;19;20331;-86
2023/05/18 12:32:18;;;;;;;;;;;20.00;35.90;;;18.74;38.96;102352.13;12251539;19;19994;-88
2023/05/18 12:36:20;;;;;;;;;;;20.10;35.60;;;18.71;38.50;102331.16;12249831;19;19915;-88
2023/05/18 12:40:22;;;;;;;;;;;20.20;36.30;;;19.04;38.59;102367.91;12253183;19;19974;-88
2023/05/18 12:44:24;;;;;;;;;;;20.20;36.10;;;19.04;38.48;102359.94;12252223;19;19914;-88
2023/05/18 12:48:25;;;;;;;;;;;20.30;34.60;;;19.13;38.75;102348.75;12252621;19;19923;-88
2023/05/18 12:52:27;;;;;;;;;;;20.40;35.60;;;19.27;38.54;102349.66;12252226;19;20279;-88
2023/05/18 12:57:08;;;;;;;;;;;20.50;35.20;;;19.37;38.67;102346.28;12248103;19;19994;-88
2023/05/18 13:01:10;;;;;;;;;;;20.60;35.80;;;19.48;38.67;102355.31;12247469;19;19918;-86
2023/05/18 13:05:12;;;;;;;;;;;20.70;35.50;;;19.50;38.38;102337.53;12248544;19;19911;-87
2023/05/18 13:09:15;;;;;;;;;;;20.80;35.20;;;19.57;38.24;102336.13;12253791;19;19971;-87
2023/05/18 13:13:16;;;;;;;;;;;20.80;35.60;;;19.65;38.51;102344.41;12257568;19;20329;-86
2023/05/18 13:17:21;;;;;;;;;;;20.90;35.90;;;19.69;38.29;102335.34;12252943;19;19922;-87
2023/05/18 13:21:23;;;;;;;;;;;20.90;35.20;;;19.61;38.21;102308.50;12252299;19;19925;-87
2023/05/18 13:25:25;;;;;;;;;;;21.00;35.30;;;19.74;38.10;102321.75;12250263;19;20136;-87
2023/05/18 13:29:27;;;;;;;;;;;21.00;35.60;;;19.76;38.03;102318.06;12249788;19;19919;-87
2023/05/18 13:33:28;;;;;;;;;;;21.10;34.90;;;19.84;38.16;102310.41;12250292;19;19926;-87
2023/05/18 13:37:30;;;;;;;;;;;21.20;34.80;;;20.07;38.32;102327.41;12248582;19;20348;-87
2023/05/18 13:41:34;;;;;;;;;;;21.30;34.10;;;20.10;37.87;102316.56;12250077;19;19948;-87
2023/05/18 13:45:35;;;;;;;;;;;21.30;34.80;;;20.17;37.96;102329.41;12249909;19;19967;-87
2023/05/18 13:49:37;;;;;;;;;;;21.40;35.50;;;20.24;38.02;102307.63;12251356;19;20341;-87
2023/05/18 13:53:39;;;;;;;;;;;21.50;35.20;;;20.22;37.61;102306.88;12247903;19;20337;-87
2023/05/18 13:57:40;;;;;;;;;;;21.50;35.20;;;20.31;37.51;102314.22;12251783;19;19915;-88
2023/05/18 14:01:43;;;;;;;;;;;21.50;34.10;;;20.10;37.60;102266.19;12252223;19;19925;-88
2023/05/18 14:05:45;;;;;;;;;;;21.60;34.60;;;20.39;37.93;102307.50;12246157;19;19946;-87
2023/05/18 14:09:46;;;;;;;;;;;21.50;34.80;;;20.48;37.77;102290.94;12249684;19;19927;-87
2023/05/18 14:13:49;;;;;;;;;;;21.70;34.80;;;20.57;37.44;102298.25;12245837;19;20256;-87
2023/05/18 14:17:50;;;;;;;;;;;21.70;35.00;;;20.63;37.64;102286.31;12249928;19;19925;-87
2023/05/18 14:21:52;;;;;;;;;;;21.80;35.00;;;20.72;37.34;102302.44;12246872;19;19926;-87
2023/05/18 14:25:53;;;;;;;;;;;21.90;35.10;;;20.63;37.16;102299.59;12240559;19;19923;-87
2023/05/18 14:29:55;;;;;;;;;;;21.90;33.50;;;20.57;37.37;102289.44;12247073;19;19914;-87
2023/05/18 14:33:57;;;;;;;;;;;21.80;34.00;;;20.61;37.57;102289.13;12247064;19;19923;-87
2023/05/18 14:37:59;;;;;;;;;;;21.80;34.50;;;20.58;37.45;102281.38;12247139;19;19941;-87
2023/05/18 14:42:01;;;;;;;;;;;21.80;34.70;;;20.68;37.22;102303.63;12247912;19;19915;-87
2023/05/18 14:46:03;;;;;;;;;;;21.80;34.20;;;20.57;37.09;102276.16;12243181;19;19986;-88
2023/05/18 14:50:05;;;;;;;;;;;21.80;33.10;;;20.47;37.07;102270.66;12250335;19;19941;-88
2023/05/18 14:54:07;;;;;;;;;;;21.80;33.90;;;20.57;36.93;102292.09;12251346;19;19928;-88
2023/05/18 14:58:13;;;;;;;;;;;21.70;34.20;;;20.60;37.33;102291.88;12251810;19;19940;-87
2023/05/18 15:02:15;;;;;;;;;;;21.70;34.70;;;20.51;36.85;102280.09;12260539;19;19954;-87
2023/05/18 15:06:16;;;;;;;;;;;21.70;34.50;;;20.58;37.06;102283.16;12253899;19;19915;-87
2023/05/18 15:10:19;;;;;;;;;;;21.70;34.00;;;20.30;36.98;102254.13;12261270;19;20337;-87
2023/05/18 15:14:21;;;;;;;;;;;21.70;34.50;;;20.49;36.72;102280.19;12256200;19;20313;-87
2023/05/18 15:18:23;;;;;;;;;;;21.70;34.50;;;20.51;37.15;102280.09;12255127;19;19930;-87
2023/05/18 15:22:25;;;;;;;;;;;21.70;34.80;;;20.57;36.62;102295.59;12252631;19;19996;-86
2023/05/18 15:26:27;;;;;;;;;;;21.70;34.70;;;20.57;36.80;102292.09;12252324;19;20260;-87
2023/05/18 15:30:28;;;;;;;;;;;21.70;34.30;;;20.52;36.96;102292.38;12252895;19;19922;-87
2023/05/18 15:34:32;;;;;;;;;;;21.70;34.10;;;20.45;36.80;102293.81;12250594;19;19919;-88
2023/05/18 15:38:33;;;;;;;;;;;21.50;33.50;;;20.15;36.54;102257.06;12256019;19;19926;-87
2023/05/18 15:42:35;;;;;;;;;;;21.50;34.10;;;20.29;36.56;102283.44;12254429;19;19974;-88
2023/05/18 15:46:37;;;;;;;;;;;21.40;34.20;;;20.20;36.40;102273.47;12251690;19;19922;-87
2023/05/18 15:50:39;;;;;;;;;;;21.30;34.10;;;20.25;36.53;102277.50;12251843;19;19934;-87
2023/05/18 15:54:41;;;;;;;;;;;21.30;34.00;;;20.16;36.78;102267.53;12251713;19;19942;-87
2023/05/18 15:58:42;;;;;;;;;;;21.30;34.60;;;20.20;36.37;102268.16;12254791;19;19915;-87
2023/05/18 16:02:44;;;;;;;;;;;21.20;34.50;;;20.16;36.76;102258.75;12254186;19;19915;-87
2023/05/18 16:06:45;;;;;;;;;;;21.30;34.10;;;20.15;36.20;102265.84;12248927;19;19930;-87
2023/05/18 16:10:47;;;;;;;;;;;21.30;34.40;;;20.20;36.25;102284.94;12257550;19;19922;-87
2023/05/18 16:14:49;;;;;;;;;;;21.30;34.10;;;20.20;36.67;102278.78;12252032;19;19919;-87
2023/05/18 16:18:51;;;;;;;;;;;21.20;34.30;;;20.13;36.47;102275.72;12257298;19;20330;-87
2023/05/18 16:22:52;;;;;;;;;;;21.20;33.80;;;20.13;36.12;102280.19;12254011;19;19952;-87
2023/05/18 16:26:55;;;;;;;;;;;21.20;34.20;;;20.02;36.54;102270.34;12250348;19;19922;-87
2023/05/18 16:30:56;;;;;;;;;;;21.10;34.20;;;19.99;36.40;102274.06;12244641;19;19923;-87
2023/05/18 16:34:58;;;;;;;;;;;21.10;34.40;;;19.97;36.13;102264.50;12247716;19;20356;-87
2023/05/18 16:39:01;;;;;;;;;;;21.00;34.30;;;19.97;36.46;102273.31;12251949;19;19943;-87
2023/05/18 16:43:03;;;;;;;;;;;21.00;34.30;;;19.96;36.54;102270.78;12255712;19;20321;-88
2023/05/18 16:47:05;;;;;;;;;;;21.00;34.40;;;20.02;36.20;102279.13;12248547;19;19911;-88
2023/05/18 16:51:08;;;;;;;;;;;21.00;34.30;;;20.00;36.23;102278.38;12254665;19;19926;-88
2023/05/18 16:55:09;;;;;;;;;;;21.00;34.40;;;19.97;35.98;102267.16;12250931;19;19923;-88
2023/05/18 16:59:11;;;;;;;;;;;21.00;34.30;;;19.91;36.29;102259.63;12254731;19;20345;-88
2023/05/18 17:03:15;;;;;;;;;;;21.00;34.60;;;19.98;36.26;102268.84;12253685;19;19907;-87
2023/05/18 17:07:17;;;;;;;;;;;20.90;34.30;;;19.78;36.33;102233.13;12251558;19;19929;-86
2023/05/18 17:11:19;;;;;;;;;;;20.90;34.60;;;19.88;35.98;102250.09;12250099;19;19939;-87
2023/05/18 17:15:20;;;;;;;;;;;21.00;34.70;;;19.76;36.44;102225.28;12251279;19;20337;-88
2023/05/18 17:19:22;;;;;;;;;;;21.00;34.40;;;19.96;36.04;102255.72;12249416;19;19915;-88
2023/05/18 17:23:23;;;;;;;;;;;21.00;34.60;;;19.97;36.38;102262.69;12249447;19;19915;-88
2023/05/18 17:27:25;;;;;;;;;;;21.00;34.40;;;19.89;36.36;102244.66;12249497;19;19910;-88
2023/05/18 17:31:27;;;;;;;;;;;21.00;34.60;;;19.91;36.28;102252.53;12249540;19;19926;-88
2023/05/18 17:35:29;;;;;;;;;;;20.90;34.30;;;19.75;35.78;102228.88;12248550;19;20343;-88
2023/05/18 17:39:30;;;;;;;;;;;20.90;34.40;;;19.87;35.92;102254.56;12241923;19;19931;-88
2023/05/18 17:43:31;;;;;;;;;;;20.90;34.40;;;19.81;35.91;102241.72;12246334;19;19938;-88
2023/05/18 17:47:33;;;;;;;;;;;20.90;34.50;;;19.76;35.85;102227.09;12249174;19;19915;-88
2023/05/18 17:51:34;;;;;;;;;;;20.80;34.60;;;19.83;35.91;102252.22;12247024;19;19907;-88
2023/05/18 17:55:35;;;;;;;;;;;20.80;34.60;;;19.70;36.25;102241.63;12248554;19;19918;-88
2023/05/18 17:59:37;;;;;;;;;;;20.80;34.70;;;19.79;35.86;102254.22;12250092;19;19926;-88
2023/05/18 18:03:38;;;;;;;;;;;20.80;34.80;;;19.75;36.06;102246.59;12250030;19;20329;-88
2023/05/18 18:07:40;;;;;;;;;;;20.80;34.80;;;19.69;36.09;102244.41;12249131;19;19921;-88
2023/05/18 18:11:42;;;;;;;;;;;20.70;34.90;;;19.71;36.13;102258.38;12248627;19;19922;-88
2023/05/18 18:15:44;;;;;;;;;;;20.70;34.90;;;19.59;36.34;102244.13;12246485;19;19919;-88